• Join FlightAware (Why Join?)
  • Login
  • US Flag 
09:46AM EDT


 

Airport Tracker/Info


-or-


 

Live Flight TrackerFlight Track Log ✈ SWA1423 ✈ 06-Apr-2013 ✈ KMDW - KSJC

Flight Track Log - Related Links

Times and Time Zones

All times are in EDT time to prevent confusion due to time zone crossing. See the SWA1423 flight status page for this flight to view local times or setup timezone preferences in your user account.

Time Position Orientation Groundspeed Altitude Reporting Facility
EDT Latitude Longitude Course Direction KTS MPH feet Rate Location/Type
08:23PM 41.7669 -87.8194 272° West 161 185 3,300  Level Chicago Center
08:24PM 41.7631 -87.9011 266° West 204 235 3,900 1,320 Climbing Chicago Center
08:25PM 41.7686 -87.9883 275° West 234 269 6,100 3,000 Climbing Chicago Center
08:26PM 41.7986 -88.0744 295° West 259 298 10,000 2,940 Climbing Chicago Center
08:27PM 41.8106 -88.1639 280° West 252 290 12,100 1,920 Climbing Chicago Center
08:28PM 41.8033 -88.6077 272° West  Level Estimated
08:28PM 41.8675 -88.2753 304° West 316 364 14,000  Level Chicago Center
08:29PM 41.9125 -88.3856 299° West 336 387 17,300 2,940 Climbing Chicago Center
08:30PM 41.9575 -88.4947 299° West 337 388 20,000 2,340 Climbing Chicago Center
08:31PM 42.0050 -88.6125 299° West 356 410 22,100 2,040 Climbing Chicago Center
08:32PM 42.0558 -88.7353 299° West 374 430 24,200 1,920 Climbing Chicago Center
08:33PM 42.0928 -88.8833 289° West 392 451 26,100 1,620 Climbing Chicago Center
08:34PM 42.0992 -89.0311 273° West 391 450 27,500 1,740 Climbing Chicago Center
08:35PM 42.1069 -89.1783 274° West 393 452 29,700 1,380 Climbing Chicago Center
08:36PM 42.1133 -89.3339 273° West 412 474 30,400 1,560 Climbing Chicago Center
08:37PM 42.1214 -89.4931 274° West 420 483 32,900 1,740 Climbing Chicago Center
08:38PM 42.1369 -89.6436 278° West 410 472 34,000 480 Climbing Chicago Center
08:39PM 42.1556 -89.7933 280° West 405 466 34,000  Level Chicago Center
08:40PM 42.1733 -89.9392 279° West 403 464 34,000  Level Chicago Center
08:41PM 42.2275 -90.1078 294° West 415 478 34,000  Level Chicago Center
08:42PM 42.2772 -90.2467 296° West 415 478 34,000  Level Chicago Center
08:43PM 42.3261 -90.3867 295° West 415 478 34,000 420 Level Chicago Center
08:44PM 42.3706 -90.5292 293° West 415 478 34,900 960 Climbing Chicago Center
08:45PM 42.4192 -90.6717 295° West 421 484 36,000 480 Climbing Chicago Center
08:46PM 42.4658 -90.8156 294° West 422 486 36,000  Level Chicago Center
08:47PM 42.5119 -90.9589 294° West 418 481 36,000  Level Chicago Center
08:48PM 42.5511 -91.1344 287° West 410 472 36,000 420 Level Chicago Center
08:49PM 42.5569 -91.2881 273° West 408 470 36,900 900 Climbing Chicago Center
08:50PM 42.5617 -91.4431 272° West 412 474 37,900 480 Climbing Chicago Center
08:51PM 42.5667 -91.5981 273° West 409 471 38,000  Climbing Chicago Center
08:52PM 42.5711 -91.7544 272° West 411 473 38,000  Level Chicago Center
08:53PM 42.5756 -91.9072 272° West 406 467 38,000  Level Chicago Center
08:54PM 42.5781 -92.0608 271° West 406 467 38,000  Level Chicago Center
08:55PM 42.5806 -92.2142 271° West 408 470 38,000  Level Chicago Center
08:56PM 42.5844 -92.3672 272° West 408 470 38,000  Level Chicago Center
08:57PM 42.5878 -92.5186 272° West 406 467 38,000  Level Chicago Center
08:58PM 42.5911 -92.7006 271° West 404 465 38,000  Level Chicago Center
08:59PM 42.5942 -92.8533 272° West 408 470 38,000  Level Chicago Center
09:00PM 42.5972 -93.0078 272° West 413 475 38,000  Level Chicago Center
09:01PM 42.5997 -93.1603 271° West 409 471 38,000  Level Chicago Center
09:02PM 42.6011 -93.3139 271° West 410 472 38,000  Level Chicago Center
09:03PM 42.6042 -93.4669 272° West 411 473 38,000  Level Chicago Center
09:05PM 42.6056 -93.6175 271° West 405 466 38,000  Level Chicago Center
09:06PM 42.6078 -93.7967 271° West 400 460 38,000  Level Chicago Center
09:07PM 42.6078 -93.9450 270° West 398 458 38,000  Level Chicago Center
09:08PM 42.6089 -94.0894 271° West 390 449 38,000  Level Chicago Center
09:09PM 42.6103 -94.2358 271° West 389 448 38,000  Level Chicago Center
09:10PM 42.6106 -94.4117 270° West 390 449 38,000  Level Minneapolis Center
09:11PM 42.6083 -94.5583 269° West 391 450 38,000  Level Minneapolis Center
09:12PM 42.6056 -94.7031 269° West 387 445 38,000  Level Minneapolis Center
09:13PM 42.6031 -94.8508 269° West 389 448 38,000  Level Minneapolis Center
09:14PM 42.6000 -95.0003 268° West 394 453 38,000  Level Minneapolis Center
09:15PM 42.5981 -95.1783 269° West 395 455 38,000  Level Minneapolis Center
09:16PM 42.5950 -95.3233 268° West 389 448 38,000  Level Minneapolis Center
09:17PM 42.5911 -95.4669 268° West 385 443 38,000  Level Minneapolis Center
09:18PM 42.5875 -95.6097 268° West 382 440 38,000  Level Minneapolis Center
09:19PM 42.5839 -95.7525 268° West 380 437 38,000  Level Minneapolis Center
09:20PM 42.5800 -95.8950 268° West 380 437 38,000  Level Minneapolis Center
09:21PM 42.5756 -96.0394 268° West 383 441 38,000  Level Minneapolis Center
09:22PM 42.5719 -96.1847 268° West 384 442 38,000  Level Minneapolis Center
09:23PM 42.5667 -96.3292 267° West 386 444 38,000  Level Minneapolis Center
09:24PM 42.5628 -96.4750 268° West 388 447 38,000  Level Minneapolis Center
09:25PM 42.5567 -96.6500 267° West 389 448 38,000  Level Minneapolis Center
09:26PM 42.5511 -96.7967 267° West 390 449 38,000  Level Minneapolis Center
09:27PM 42.5472 -96.9408 268° West 386 444 38,000  Level Minneapolis Center
09:28PM 42.5425 -97.0861 268° West 387 445 38,000  Level Minneapolis Center
09:29PM 42.5347 -97.2344 266° West 392 451 38,000  Level Minneapolis Center
09:30PM 42.5297 -97.3792 267° West 388 447 38,000  Level Minneapolis Center
09:31PM 42.5239 -97.5244 267° West 388 447 38,000  Level Minneapolis Center
09:32PM 42.5178 -97.6733 267° West 395 455 38,000  Level Minneapolis Center
09:33PM 42.5111 -97.8219 267° West 396 456 38,000  Level Minneapolis Center
09:34PM 42.5042 -97.9925 267° West 392 451 38,000  Level Minneapolis Center
09:35PM 42.4953 -98.1686 266° West 391 450 38,000  Level Minneapolis Center
09:36PM 42.4886 -98.3142 266° West 389 448 38,000  Level Minneapolis Center
09:37PM 42.4814 -98.4586 266° West 387 445 38,000  Level Minneapolis Center
09:39PM 42.4744 -98.6039 266° West 388 447 38,000  Level Minneapolis Center
09:40PM 42.4600 -98.7483 262° West 389 448 38,000  Level Minneapolis Center
09:41PM 42.4336 -98.8911 256° West 392 451 38,000  Level Minneapolis Center
09:42PM 42.4083 -99.0353 257° West 394 453 38,000  Level Minneapolis Center
09:43PM 42.3825 -99.1789 256° West 394 453 38,000  Level Minneapolis Center
09:44PM 42.3558 -99.3219 256° West 394 453 38,000  Level Minneapolis Center
09:44PM 42.3339 -99.4367 256° West 392 451 38,000  Level Denver Center
09:45PM 42.3086 -99.5803 257° West 394 453 38,000  Level Denver Center
09:46PM 42.2814 -99.7261 256° West 400 460 38,000  Level Denver Center
09:47PM 42.2506 -99.8861 255° West 397 457 38,000  Level Denver Center
09:48PM 42.2244 -100.0247 256° West 399 459 38,000  Level Denver Center
09:49PM 42.1939 -100.1836 255° West 394 453 38,000  Level Denver Center
09:50PM 42.1678 -100.3217 256° West 397 457 38,000  Level Denver Center
09:51PM 42.1417 -100.4594 256° West 398 458 38,000  Level Denver Center
09:53PM 42.1100 -100.6192 255° West 396 456 38,000  Level Denver Center
09:54PM 42.0828 -100.7561 255° West 396 456 38,000  Level Denver Center
09:55PM 42.0511 -100.9186 255° West 400 460 38,000  Level Denver Center
09:56PM 42.0242 -101.0561 255° West 400 460 38,000  Level Denver Center
09:57PM 41.9908 -101.2150 254° West 397 457 38,000  Level Denver Center
09:58PM 41.9639 -101.3508 255° West 395 455 38,000  Level Denver Center
09:59PM 41.9364 -101.4861 255° West 393 452 38,000  Level Denver Center
10:00PM 41.9042 -101.6453 255° West 395 455 38,000  Level Denver Center
10:01PM 41.8769 -101.7800 255° West 393 452 38,000  Level Denver Center
10:02PM 41.8425 -101.9383 254° West 397 457 38,000  Level Denver Center
10:03PM 41.8147 -102.0725 255° West 393 452 38,000  Level Denver Center
10:04PM 41.7861 -102.2081 254° West 395 455 38,000  Level Denver Center
10:05PM 41.7542 -102.3564 254° West 397 457 38,000  Level Denver Center
10:06PM 41.7236 -102.5017 254° West 396 456 38,000  Level Denver Center
10:07PM 41.6922 -102.6492 254° West 394 453 38,000  Level Denver Center
10:08PM 41.6633 -102.7825 254° West 391 450 38,000  Level Denver Center
10:09PM 41.6297 -102.9339 254° West 382 440 38,000  Level Denver Center
10:10PM 41.6017 -103.0658 254° West 384 442 38,000  Level Denver Center
10:11PM 41.5667 -103.2189 253° West 385 443 38,000  Level Denver Center
10:12PM 41.5375 -103.3539 254° West 393 452 38,000  Level Denver Center
10:13PM 41.5072 -103.4897 253° West 399 459 38,000  Level Denver Center
10:14PM 41.4714 -103.6453 253° West 394 453 38,000  Level Denver Center
10:15PM 41.4414 -103.7806 254° West 396 456 38,000  Level Denver Center
10:16PM 41.4067 -103.9339 253° West 389 448 38,000  Level Denver Center
10:17PM 41.3761 -104.0653 253° West 387 445 38,000  Level Denver Center
10:18PM 41.3467 -104.1956 253° West 386 444 38,000  Level Denver Center
10:19PM 41.3150 -104.3475 255° West 380 437 38,000  Level Denver Center
10:20PM 41.2908 -104.4767 256° West 377 434 38,000  Level Denver Center
10:21PM 41.2647 -104.6083 255° West 382 440 38,000  Level Denver Center
10:22PM 41.2353 -104.7594 256° West 379 436 38,000  Level Denver Center
10:23PM 41.2094 -104.8889 255° West 379 436 38,000  Level Denver Center
10:24PM 41.1828 -105.0214 255° West 383 441 38,000  Level Denver Center
10:25PM 41.1522 -105.1742 255° West 384 442 38,000  Level Denver Center
10:26PM 41.1258 -105.3036 255° West 382 440 38,000  Level Denver Center
10:27PM 41.0958 -105.4597 256° West 388 447 38,000  Level Denver Center
10:28PM 41.0672 -105.5886 254° West 383 441 38,000  Level Denver Center
10:29PM 41.0408 -105.7206 255° West 386 444 38,000  Level Denver Center
10:30PM 41.0083 -105.8728 254° West 385 443 38,000  Level Denver Center
10:31PM 40.9797 -106.0108 255° West 387 445 38,000  Level Denver Center
10:32PM 40.9500 -106.1486 254° West 387 445 38,000  Level Denver Center
10:33PM 40.9236 -106.2750 255° West 394 453 38,000  Level Denver Center
10:34PM 40.8911 -106.4308 255° West 394 453 38,000  Level Denver Center
10:35PM 40.8636 -106.5619 255° West 388 447 38,000  Level Denver Center
10:36PM 40.8292 -106.7153 254° West 388 447 38,000  Level Denver Center
10:37PM 40.8008 -106.8461 254° West 388 447 38,000  Level Denver Center
10:38PM 40.7717 -106.9794 254° West 394 453 38,000  Level Denver Center
10:39PM 40.7406 -107.1197 254° West 394 453 38,000  Level Denver Center
10:41PM 40.7083 -107.2681 254° West 392 451 38,000  Level Denver Center
10:42PM 40.6681 -107.4439 253° West 392 451 38,000  Level Denver Center
10:43PM 40.6392 -107.5758 254° West 393 452 38,000  Level Denver Center
10:44PM 40.6086 -107.7078 253° West 393 452 38,000  Level Denver Center
10:45PM 40.5731 -107.8639 253° West 398 458 38,000  Level Denver Center
10:46PM 40.5433 -107.9956 253° West 396 456 38,000  Level Denver Center
10:47PM 40.5125 -108.1286 253° West 397 457 38,000  Level Denver Center
10:47PM 40.4864 -108.2389 253° West 396 456 38,000  Level Salt Lake Center
10:48PM 40.4556 -108.3692 253° West 393 452 38,000  Level Salt Lake Center
10:49PM 40.4464 -108.4097 253° West 389 448 38,000  Level Denver Center
10:50PM 40.4114 -108.5622 253° West 391 450 38,000  Level Denver Center
10:51PM 40.3803 -108.6922 253° West 392 451 38,000  Level Denver Center
10:52PM 40.3597 -108.7814 253° West 392 451 38,000  Level Salt Lake Center
10:53PM 40.3236 -108.9317 253° West 393 452 38,000  Level Salt Lake Center
10:53PM 40.3128 -108.9747 252° West 394 453 38,000  Level Denver Center
10:54PM 40.2819 -109.1042 253° West 392 451 38,000  Level Denver Center
10:55PM 40.2608 -109.1919 253° West 392 451 38,000  Level Salt Lake Center
10:56PM 40.2239 -109.3425 252° West 392 451 38,000  Level Salt Lake Center
10:57PM 40.1917 -109.4725 252° West 393 452 38,000  Level Salt Lake Center
10:58PM 40.1542 -109.6242 252° West 394 453 38,000  Level Salt Lake Center
10:59PM 40.1222 -109.7531 252° West 393 452 38,000  Level Salt Lake Center
11:00PM 40.0906 -109.8836 252° West 394 453 38,000  Level Salt Lake Center
11:01PM 40.0536 -110.0336 252° West 390 449 38,000  Level Salt Lake Center
11:02PM 40.0203 -110.1611 251° West 390 449 38,000  Level Salt Lake Center
11:03PM 39.9886 -110.2894 252° West 388 447 38,000  Level Salt Lake Center
11:04PM 39.9506 -110.4392 252° West 391 450 38,000  Level Salt Lake Center
11:05PM 39.9183 -110.5686 252° West 393 452 38,000  Level Salt Lake Center
11:06PM 39.8844 -110.6981 251° West 394 453 38,000  Level Salt Lake Center
11:07PM 39.8439 -110.8508 251° West 400 460 38,000  Level Salt Lake Center
11:08PM 39.8108 -110.9817 252° West 400 460 38,000  Level Salt Lake Center
11:09PM 39.7706 -111.1356 251° West 403 464 38,000  Level Salt Lake Center
11:10PM 39.7353 -111.2681 251° West 406 467 38,000  Level Salt Lake Center
11:11PM 39.6961 -111.4175 251° West 403 464 38,000  Level Salt Lake Center
11:12PM 39.6600 -111.5525 251° West 399 459 38,000  Level Salt Lake Center
11:13PM 39.6250 -111.6867 251° West 394 453 38,000  Level Salt Lake Center
11:14PM 39.5883 -111.8211 251° West 394 453 38,000  Level Salt Lake Center
11:15PM 39.5519 -111.9542 251° West 393 452 38,000  Level Salt Lake Center
11:16PM 39.5150 -112.0906 251° West 399 459 38,000  Level Salt Lake Center
11:17PM 39.4778 -112.2258 250° West 400 460 38,000  Level Salt Lake Center
11:18PM 39.4408 -112.3622 251° West 402 463 38,000  Level Salt Lake Center
11:19PM 39.4028 -112.4967 250° West 400 460 38,000  Level Salt Lake Center
11:20PM 39.3661 -112.6308 251° West 397 457 38,000  Level Salt Lake Center
11:21PM 39.3239 -112.7772 250° West 391 450 38,000  Level Salt Lake Center
11:22PM 39.2872 -112.9058 250° West 386 444 38,000  Level Salt Lake Center
11:23PM 39.2506 -113.0358 250° West 387 445 38,000  Level Salt Lake Center
11:24PM 39.2139 -113.1661 250° West 388 447 38,000  Level Salt Lake Center
11:25PM 39.1761 -113.2964 250° West 389 448 38,000  Level Salt Lake Center
11:26PM 39.1400 -113.4275 250° West 390 449 38,000  Level Salt Lake Center
11:27PM 39.1017 -113.5575 249° West 390 449 38,000  Level Salt Lake Center
11:28PM 39.0633 -113.6917 250° West 398 458 38,000  Level Salt Lake Center
11:29PM 39.0244 -113.8236 249° West 399 459 38,000  Level Salt Lake Center
11:30PM 38.9872 -113.9550 250° West 394 453 38,000  Level Salt Lake Center
11:31PM 38.9481 -114.0828 249° West 388 447 38,000  Level Salt Lake Center
11:32PM 38.9106 -114.2106 249° West 384 442 38,000  Level Salt Lake Center
11:33PM 38.8658 -114.3636 249° West 383 441 38,000  Level Salt Lake Center
11:34PM 38.8278 -114.4908 249° West 384 442 38,000  Level Salt Lake Center
11:35PM 38.7894 -114.6189 249° West 386 444 38,000  Level Salt Lake Center
11:36PM 38.7506 -114.7469 249° West 386 444 38,000  Level Salt Lake Center
11:37PM 38.7125 -114.8736 249° West 384 442 38,000  Level Salt Lake Center
11:38PM 38.6719 -115.0031 248° West 390 449 38,000  Level Salt Lake Center
11:39PM 38.6314 -115.1322 248° West 393 452 38,000  Level Salt Lake Center
11:40PM 38.5944 -115.2575 249° West 385 443 38,000  Level Salt Lake Center
11:41PM 38.5542 -115.3883 249° West 387 445 38,000  Level Salt Lake Center
11:42PM 38.5142 -115.5161 248° West 389 448 38,000  Level Salt Lake Center
11:43PM 38.4736 -115.6439 248° West 389 448 38,000  Level Salt Lake Center
11:44PM 38.4339 -115.7717 248° West 389 448 38,000  Level Salt Lake Center
11:45PM 38.3947 -115.8978 248° West 383 441 38,000  Level Salt Lake Center
11:46PM 38.3556 -116.0242 248° West 385 443 38,000  Level Salt Lake Center
11:47PM 38.3161 -116.1492 248° West 381 438 38,000  Level Salt Lake Center
11:48PM 38.2753 -116.2744 247° West 383 441 38,000  Level Salt Lake Center
11:49PM 38.2367 -116.3983 248° West 378 435 38,000  Level Salt Lake Center
11:50PM 38.2203 -116.4472 247° West 377 434 38,000  Level Oakland Center
11:51PM 38.1806 -116.5711 248° West 378 435 38,000  Level Oakland Center
11:52PM 38.1333 -116.7169 248° West 371 427 38,000  Level Oakland Center
11:52PM 38.1097 -116.7911 248° West 372 428 38,000  Level Salt Lake Center
11:53PM 38.0703 -116.9131 248° West 372 428 38,000  Level Salt Lake Center
11:54PM 38.0544 -116.9625 248° West 373 429 38,000  Level Oakland Center
11:55PM 38.0139 -117.0844 247° West 370 426 38,000  Level Oakland Center
11:55PM 37.9872 -117.1578 245° Southwest 373 429 38,000  Level Salt Lake Center
11:56PM 37.9775 -117.1817 243° Southwest 373 429 38,000  Level Oakland Center
11:57PM 37.9331 -117.3058 246° West 380 437 38,000  Level Oakland Center
11:58PM 37.8892 -117.4286 246° West 380 437 38,000 -900 Level Oakland Center
12:00AM 37.8419 -117.5494 244° Southwest  Level FlightAware Approximate
12:07AM 37.5237 -118.4008 246° West  Level FlightAware Approximate
12:08AM 37.4791 -118.5227 245° Southwest  Level FlightAware Approximate
12:09AM 37.4345 -118.6444 245° Southwest  Level FlightAware Approximate
12:10AM 37.3897 -118.7660 245° Southwest  Level FlightAware Approximate
12:11AM 37.3763 -118.8975 262° West  Level FlightAware Approximate
12:12AM 37.3615 -119.0302 262° West  Level FlightAware Approximate
12:13AM 37.3442 -119.1622 256° West  Level FlightAware Approximate
12:14AM 37.3267 -119.2939 264° West  Level FlightAware Approximate
12:15AM 37.3151 -119.4269 264° West  Level FlightAware Approximate
12:16AM 37.3034 -119.5600 264° West  Level FlightAware Approximate
12:17AM 37.2915 -119.6929 264° West  Level FlightAware Approximate
12:18AM 37.2773 -119.8255 260° West  Level FlightAware Approximate
12:19AM 37.2617 -119.9550 219° Southwest  Level FlightAware Approximate
12:20AM 37.2456 -120.0812 260° West  Level FlightAware Approximate
12:21AM 37.2268 -120.2128 260° West  Level FlightAware Approximate
12:22AM 37.2167 -120.3453 270° West  Level FlightAware Approximate
12:23AM 37.1941 -120.4736 253° West  Level FlightAware Approximate
12:24AM 37.1667 -120.6019 270° West  Level FlightAware Approximate
12:25AM 37.1392 -120.7295 250° West  Level FlightAware Approximate
12:26AM 37.1150 -120.8583 256° West  Level FlightAware Approximate
12:27AM 37.0806 -120.9830 258° West  Level FlightAware Approximate
12:28AM 37.0552 -121.1124 253° West  Level FlightAware Approximate
12:28AM 37.1333 -120.8803 321° Northwest 286 329 10,900  Level Oakland Center
12:29AM 37.0274 -121.2405 253° West  Level FlightAware Approximate
12:29AM 37.1361 -120.9764 272° West 279 321 10,000  Level Oakland Center
12:30AM 36.9956 -121.3677 253° West  Level FlightAware Approximate
12:30AM 37.1408 -121.0689 274° West 268 308 10,000  Level Oakland Center
12:31AM 36.9735 -121.4919 315° West  Level FlightAware Approximate
12:31AM 37.1450 -121.1847 273° West 277 319 10,000  Level Oakland Center
12:32AM 37.0536 -121.5713 314° West  Level FlightAware Approximate
12:32AM 37.1489 -121.2903 273° West 296 341 10,000  Level Oakland Center
12:33AM 37.1280 -121.6668 314° West  Level FlightAware Approximate
12:33AM 37.1525 -121.3900 273° West 290 334 9,800  Level Oakland Center
12:34AM 37.2066 -121.7566 321° Northwest  Level FlightAware Approximate
12:34AM 37.1561 -121.4844 273° West 275 316 8,300  Level Oakland Center
12:35AM 37.1589 -121.5772 272° West 269 310 6,600 -1,680 Descending Oakland Center
12:36AM 37.1611 -121.6653 272° West 267 307 5,000 -1,080 Descending Oakland Center
12:37AM 37.1828 -121.7372 291° West 252 290 4,500 -900 Descending Oakland Center
12:38AM 37.2247 -121.7844 318° Northwest 220 253 3,300 -1,020 Descending Oakland Center
12:39AM 37.2572 -121.8181 321° Northwest 180 207 2,500 -780 Descending Oakland Center
12:40AM 37.2872 -121.8478 322° Northwest 156 180 1,800 -720 Descending Oakland Center
12:41AM 37.3164 -121.8764 322° Northwest 142 163 1,100 -780 Descending Oakland Center
12:42AM 37.3439 -121.9069 319° Northwest 136 157 300 -840 Descending Oakland Center
12:44AM 37.3500 -121.9167 North  Level FlightAware Approximate
12:51AM 37.3627 -121.9291 North  Level Estimated
12:52AM 37.3627 -121.9291 North  Level Estimated